LFBZ/BIQ METAR and TAF weather

Enter ICAO airport designator
Station Type Date Time Source
LFBZ METAR 2022/11/26 08:30 UTC NOAA

LFBZ 260830Z AUTO 10009KT CAVOK 08/07 Q1028 NOSIG


Station Type Date Time Source
LFBZ Decoded METAR 2022/11/26 08:30 UTC NOAA

Biarritz, France (LFBZ) 43-28N 001-32W 71M
Nov 26, 2022 - 03:30 AM EST / 2022.11.26 0830 UTC
Wind: from the E (100 degrees) at 10 MPH (9 KT):0
Visibility: greater than 7 mile(s):0
Temperature: 46 F (8 C)
Dew Point: 44 F (7 C)
Relative Humidity: 93%
Pressure (altimeter): 30.36 in. Hg (1028 hPa)
ob: LFBZ 260830Z AUTO 10009KT CAVOK 08/07 Q1028 NOSIG
cycle: 8

Station Type Date Time Source
LFBZ TAF 2022/11/26 08:26 UTC NOAA

TAF
AMD LFBZ 260820Z 2608/2706 09010KT CAVOK
BECMG 2618/2620 VRB03KT
BECMG 2702/2704 18010KT

Example: see airport list